Time;durP1;ratioP1;P1;durP2;ratioP2;P2;SDS_P1;SDS_P2;PMS_P1;PMS_P2;Temp;Humidity;BMP_temperature;BMP_pressure;BME280_temperature;BME280_humidity;BME280_pressure;Samples;Min_cycle;Max_cycle;Signal;HPM_P1;HPM_P2
2022/09/27 03:57:16;;;;;;;;;;;21.30;90.70;;;;;;5462169;23;20376;-75
2022/09/27 03:59:43;;;;;;;;;;;21.30;90.80;;;;;;5035555;28;19926;-75
2022/09/27 04:02:10;;;;;;;;;;;21.30;90.80;;;;;;5035421;28;19925;-74
2022/09/27 04:04:36;;;;;;;;;;;21.30;90.90;;;;;;5035372;28;20012;-75
2022/09/27 04:07:03;;;;;;;;;;;21.30;90.90;;;;;;5035264;28;20380;-75
2022/09/27 04:09:30;;;;;;;;;;;21.30;90.90;;;;;;5035557;28;20344;-75
2022/09/27 04:11:56;;;;;;;;;;;21.30;91.00;;;;;;5035313;28;19932;-75
2022/09/27 04:14:24;;;;;;;;;;;21.30;91.00;;;;;;5034999;28;20016;-74
2022/09/27 04:16:51;;;;;;;;;;;21.30;91.00;;;;;;5035045;28;19925;-74
2022/09/27 04:19:18;;;;;;;;;;;21.30;91.00;;;;;;5037727;28;19972;-74
2022/09/27 04:21:44;;;;;;;;;;;21.30;91.00;;;;;;5035038;28;20024;-75
2022/09/27 04:24:11;;;;;;;;;;;21.30;91.00;;;;;;5034987;28;19925;-74
2022/09/27 04:26:39;;;;;;;;;;;21.30;91.00;;;;;;5034568;28;20312;-74
2022/09/27 04:29:08;;;;;;;;;;;21.30;91.00;;;;;;5035675;28;19925;-78
2022/09/27 04:31:37;;;;;;;;;;;21.30;91.10;;;;;;5036572;28;19925;-77
2022/09/27 04:34:04;;;;;;;;;;;21.30;91.10;;;;;;5035888;28;19929;-75
2022/09/27 04:36:29;;;;;;;;;;;21.30;91.20;;;;;;5034988;28;19948;-75
2022/09/27 04:38:57;;;;;;;;;;;21.30;91.20;;;;;;5035553;28;20439;-78
2022/09/27 04:41:24;;;;;;;;;;;21.30;91.30;;;;;;5037772;28;20308;-79
2022/09/27 04:43:51;;;;;;;;;;;21.30;91.30;;;;;;5037905;28;20024;-80
2022/09/27 04:46:19;;;;;;;;;;;21.30;91.30;;;;;;5037424;28;19929;-81
2022/09/27 04:48:47;;;;;;;;;;;21.30;91.40;;;;;;5037546;28;19948;-81
2022/09/27 04:51:16;;;;;;;;;;;21.30;91.30;;;;;;5038081;28;20377;-80
2022/09/27 04:53:42;;;;;;;;;;;21.30;91.30;;;;;;5039765;28;19925;-82
2022/09/27 04:56:09;;;;;;;;;;;21.30;91.30;;;;;;5038612;28;20411;-81
2022/09/27 04:58:36;;;;;;;;;;;21.30;91.00;;;;;;5038436;28;19964;-79
2022/09/27 05:01:03;;;;;;;;;;;21.30;91.00;;;;;;5039394;28;19925;-80
2022/09/27 05:03:30;;;;;;;;;;;21.20;90.70;;;;;;5038570;28;19925;-80
2022/09/27 05:05:59;;;;;;;;;;;21.20;90.50;;;;;;5038949;28;20402;-81
2022/09/27 05:08:26;;;;;;;;;;;21.20;90.30;;;;;;5038913;28;19971;-82
2022/09/27 05:10:53;;;;;;;;;;;21.20;90.10;;;;;;5039323;28;19932;-86
2022/09/27 05:13:20;;;;;;;;;;;21.20;89.70;;;;;;5039218;28;19925;-79
2022/09/27 05:15:47;;;;;;;;;;;21.20;89.10;;;;;;5038225;28;20377;-79
2022/09/27 05:18:13;;;;;;;;;;;21.10;88.30;;;;;;5039115;28;19948;-82
2022/09/27 05:20:40;;;;;;;;;;;21.10;87.80;;;;;;5038420;28;20464;-82
2022/09/27 05:23:08;;;;;;;;;;;21.10;87.30;;;;;;5038391;28;20019;-82
2022/09/27 05:25:35;;;;;;;;;;;21.10;86.80;;;;;;5038699;28;19996;-82
2022/09/27 05:28:02;;;;;;;;;;;21.10;86.40;;;;;;5038446;28;19972;-82
2022/09/27 05:30:28;;;;;;;;;;;21.10;86.30;;;;;;5037251;28;20500;-82
2022/09/27 14:50:41;;;;;;;;;;;20.80;53.20;;;;;;5927906;23;19972;-76
2022/09/27 14:53:21;;;;;;;;;;;20.80;53.10;;;;;;5037392;28;19925;-78
2022/09/27 14:55:47;;;;;;;;;;;20.80;53.00;;;;;;5039439;28;19925;-77
2022/09/27 14:58:15;;;;;;;;;;;20.90;53.10;;;;;;5040750;28;19925;-74
2022/09/27 15:00:46;;;;;;;;;;;20.80;52.90;;;;;;5041020;28;20032;-74
2022/09/27 15:03:18;;;;;;;;;;;20.80;52.90;;;;;;5041628;28;19925;-73
2022/09/27 15:05:46;;;;;;;;;;;20.90;53.00;;;;;;5040401;28;19988;-73
2022/09/27 15:08:14;;;;;;;;;;;20.80;52.80;;;;;;5041629;28;19948;-73
2022/09/27 15:10:41;;;;;;;;;;;20.80;52.70;;;;;;5041697;28;20442;-73
2022/09/27 15:13:12;;;;;;;;;;;20.80;52.70;;;;;;5041762;28;20296;-73
2022/09/27 15:15:40;;;;;;;;;;;20.90;52.80;;;;;;5041788;28;19925;-73
2022/09/27 15:18:21;;;;;;;;;;;20.80;52.60;;;;;;5040596;28;19933;-73
2022/09/27 15:20:54;;;;;;;;;;;20.90;52.70;;;;;;5036987;28;19967;-74
2022/09/27 15:23:25;;;;;;;;;;;20.80;52.60;;;;;;5036581;28;19931;-73
2022/09/27 15:25:57;;;;;;;;;;;20.90;52.70;;;;;;5036429;28;19929;-73
2022/09/27 15:28:26;;;;;;;;;;;20.90;52.70;;;;;;5036167;28;19925;-73
2022/09/27 15:30:54;;;;;;;;;;;20.90;52.70;;;;;;5035711;28;19925;-73
2022/09/27 15:33:22;;;;;;;;;;;20.90;52.70;;;;;;5036314;28;19933;-73
2022/09/27 15:35:50;;;;;;;;;;;20.90;52.70;;;;;;5037111;28;20043;-74
2022/09/27 15:38:26;;;;;;;;;;;20.90;52.70;;;;;;5036965;28;20025;-73
2022/09/27 15:41:04;;;;;;;;;;;20.90;52.70;;;;;;5036862;28;20384;-74
2022/09/27 15:43:31;;;;;;;;;;;20.90;52.70;;;;;;5037477;28;19925;-73
2022/09/27 15:46:01;;;;;;;;;;;20.90;52.70;;;;;;5037301;28;20438;-74
2022/09/27 15:48:29;;;;;;;;;;;20.90;52.70;;;;;;5042670;28;19975;-74
2022/09/27 15:50:55;;;;;;;;;;;21.00;53.00;;;;;;5040756;28;20008;-76
2022/09/27 15:53:42;;;;;;;;;;;21.00;53.10;;;;;;5035690;28;19929;-77
2022/09/27 15:56:12;;;;;;;;;;;21.00;53.20;;;;;;5035868;28;19932;-77
2022/09/27 15:58:40;;;;;;;;;;;21.10;53.40;;;;;;5035915;28;19925;-76
2022/09/27 16:01:06;;;;;;;;;;;21.10;53.40;;;;;;5035518;28;19925;-76
2022/09/27 16:03:33;;;;;;;;;;;21.10;53.50;;;;;;5035691;28;20024;-75
2022/09/27 16:06:01;;;;;;;;;;;21.10;53.50;;;;;;5035114;28;19968;-75
2022/09/27 16:08:28;;;;;;;;;;;21.10;53.50;;;;;;5035366;28;19925;-76
2022/09/27 16:10:57;;;;;;;;;;;21.10;53.60;;;;;;5035323;28;19932;-76
2022/09/27 16:13:24;;;;;;;;;;;21.10;53.60;;;;;;5035311;28;19925;-76
2022/09/27 16:15:51;;;;;;;;;;;21.20;53.70;;;;;;5035177;28;19925;-77
2022/09/27 16:18:18;;;;;;;;;;;21.20;53.80;;;;;;5035246;28;19925;-77
2022/09/27 16:20:45;;;;;;;;;;;21.20;53.80;;;;;;5035362;28;20023;-77
2022/09/27 16:23:11;;;;;;;;;;;21.20;53.80;;;;;;5035574;28;20025;-76
2022/09/27 16:25:38;;;;;;;;;;;21.20;53.80;;;;;;5035155;28;20278;-77
2022/09/27 16:28:08;;;;;;;;;;;21.20;53.80;;;;;;5035098;28;20384;-77
2022/09/27 16:30:37;;;;;;;;;;;21.20;53.80;;;;;;5033975;28;20402;-76
2022/09/27 16:33:03;;;;;;;;;;;21.20;53.90;;;;;;5034604;28;20016;-77
2022/09/27 16:35:30;;;;;;;;;;;21.20;53.90;;;;;;5033612;28;20361;-77
2022/09/27 16:37:57;;;;;;;;;;;21.20;53.90;;;;;;5034492;28;20016;-77
2022/09/27 16:40:25;;;;;;;;;;;21.20;54.00;;;;;;5034365;28;20420;-76
2022/09/27 16:42:52;;;;;;;;;;;21.20;54.10;;;;;;5034724;28;19929;-77
2022/09/27 16:45:20;;;;;;;;;;;21.20;54.20;;;;;;5034731;28;19964;-77
2022/09/27 16:47:47;;;;;;;;;;;21.20;54.20;;;;;;5034611;28;19925;-77
2022/09/27 16:52:59;;;;;;;;;;;21.30;54.40;;;;;;5034307;28;19928;-77
2022/09/27 16:55:27;;;;;;;;;;;21.30;54.50;;;;;;5034673;28;19925;-76
2022/09/27 16:57:54;;;;;;;;;;;21.30;54.50;;;;;;5034757;28;19999;-76
2022/09/27 17:00:22;;;;;;;;;;;21.30;54.60;;;;;;5034311;28;19932;-77
2022/09/27 17:02:49;;;;;;;;;;;21.30;54.60;;;;;;5034465;28;19932;-77
2022/09/27 17:05:17;;;;;;;;;;;21.30;54.60;;;;;;5034528;28;20016;-77
2022/09/27 17:07:43;;;;;;;;;;;21.30;54.60;;;;;;5034426;28;20006;-77
2022/09/27 17:10:10;;;;;;;;;;;21.30;54.70;;;;;;5034433;28;19972;-77
2022/09/27 17:12:37;;;;;;;;;;;21.30;54.70;;;;;;5035070;28;19953;-76
2022/09/27 17:15:03;;;;;;;;;;;21.30;54.80;;;;;;5034248;28;20027;-76
2022/09/27 17:17:31;;;;;;;;;;;21.30;54.80;;;;;;5034365;28;20267;-74
2022/09/27 17:19:58;;;;;;;;;;;21.30;54.90;;;;;;5034460;28;20295;-76
2022/09/27 17:22:25;;;;;;;;;;;21.30;55.00;;;;;;5034136;28;20035;-76
2022/09/27 17:24:51;;;;;;;;;;;21.30;55.10;;;;;;5034484;28;19967;-78
2022/09/27 17:27:18;;;;;;;;;;;21.30;55.10;;;;;;5035408;28;19925;-76
2022/09/27 17:29:45;;;;;;;;;;;21.30;55.10;;;;;;5034587;28;19933;-73
2022/09/27 17:32:12;;;;;;;;;;;21.30;55.80;;;;;;5034295;28;20019;-77
2022/09/27 17:34:42;;;;;;;;;;;21.30;55.30;;;;;;5034033;28;19965;-77
2022/09/27 17:37:09;;;;;;;;;;;21.30;55.40;;;;;;5035005;28;19971;-76
2022/09/27 17:39:36;;;;;;;;;;;21.30;55.40;;;;;;5036433;28;19925;-76
2022/09/27 17:42:04;;;;;;;;;;;21.30;55.50;;;;;;5036142;28;20467;-75
2022/09/27 17:44:31;;;;;;;;;;;21.30;55.50;;;;;;5035222;28;19948;-77
2022/09/27 17:52:24;;;;;;;;;;;21.30;55.80;;;;;;5037435;28;19932;-77
2022/09/27 17:54:53;;;;;;;;;;;21.30;55.90;;;;;;5037744;28;19925;-76
2022/09/27 17:57:19;;;;;;;;;;;21.30;56.00;;;;;;5037775;28;19925;-77
2022/09/27 17:59:46;;;;;;;;;;;21.30;56.10;;;;;;5037781;28;19925;-77
2022/09/27 18:02:13;;;;;;;;;;;21.30;56.20;;;;;;5037592;28;19935;-77
2022/09/27 18:04:41;;;;;;;;;;;21.30;56.30;;;;;;5037631;28;20016;-77
2022/09/27 18:07:11;;;;;;;;;;;21.30;56.40;;;;;;5038821;28;19979;-76
2022/09/27 18:09:38;;;;;;;;;;;21.30;56.50;;;;;;5039522;28;20011;-77
2022/09/27 18:12:05;;;;;;;;;;;21.30;56.70;;;;;;5038683;28;20016;-76
2022/09/27 18:14:32;;;;;;;;;;;21.30;56.80;;;;;;5038430;28;19933;-77
2022/09/27 18:16:59;;;;;;;;;;;21.30;56.90;;;;;;5038575;28;19929;-76
2022/09/27 18:19:25;;;;;;;;;;;21.30;57.00;;;;;;5038402;28;19928;-76
2022/09/27 18:21:53;;;;;;;;;;;21.30;57.20;;;;;;5038064;28;20340;-75
2022/09/27 18:24:20;;;;;;;;;;;21.30;57.30;;;;;;5038684;28;19929;-76
2022/09/27 18:26:47;;;;;;;;;;;21.30;57.40;;;;;;5038617;28;20019;-76
2022/09/27 18:29:15;;;;;;;;;;;21.30;57.70;;;;;;5038721;28;19925;-75
2022/09/27 18:31:42;;;;;;;;;;;21.30;57.80;;;;;;5037877;28;19925;-75
2022/09/27 18:34:09;;;;;;;;;;;21.30;57.80;;;;;;5037957;28;19926;-76
2022/09/27 18:36:36;;;;;;;;;;;21.30;57.70;;;;;;5038223;28;20376;-75
2022/09/27 18:39:05;;;;;;;;;;;21.30;57.70;;;;;;5038190;28;19933;-76
2022/09/27 18:41:32;;;;;;;;;;;21.30;57.70;;;;;;5037460;28;20285;-75
2022/09/27 18:44:00;;;;;;;;;;;21.30;57.90;;;;;;5037758;28;19925;-76
2022/09/27 18:46:27;;;;;;;;;;;21.30;58.10;;;;;;5037790;28;19925;-76
2022/09/27 18:48:54;;;;;;;;;;;21.30;58.30;;;;;;5037495;28;19929;-76
2022/09/27 18:51:23;;;;;;;;;;;21.30;58.40;;;;;;5037539;28;19925;-74
2022/09/27 18:53:53;;;;;;;;;;;21.30;58.60;;;;;;5037418;28;20017;-75
2022/09/27 18:56:21;;;;;;;;;;;21.30;58.70;;;;;;5037457;28;19925;-75
2022/09/27 18:58:49;;;;;;;;;;;21.30;58.80;;;;;;5036851;28;19925;-75
2022/09/27 19:01:16;;;;;;;;;;;21.30;59.00;;;;;;5037515;28;19925;-76
2022/09/27 19:03:43;;;;;;;;;;;21.30;59.10;;;;;;5037356;28;20016;-76
2022/09/27 19:06:11;;;;;;;;;;;21.30;59.20;;;;;;5037719;28;19925;-75
2022/09/27 19:08:38;;;;;;;;;;;21.30;59.30;;;;;;5035932;28;19931;-75
2022/09/27 19:11:06;;;;;;;;;;;21.30;60.00;;;;;;5037448;28;19929;-75
2022/09/27 19:13:34;;;;;;;;;;;21.30;59.50;;;;;;5036533;28;19925;-75
2022/09/27 19:16:01;;;;;;;;;;;21.30;59.60;;;;;;5036279;28;19925;-76
2022/09/27 19:18:28;;;;;;;;;;;21.30;59.70;;;;;;5037511;28;19931;-76
2022/09/27 19:20:55;;;;;;;;;;;21.30;59.90;;;;;;5037404;28;20024;-76
2022/09/27 19:23:22;;;;;;;;;;;21.30;60.10;;;;;;5036271;28;19925;-76
2022/09/27 19:25:49;;;;;;;;;;;21.30;60.20;;;;;;5036118;28;20361;-76
2022/09/27 19:28:15;;;;;;;;;;;21.30;60.50;;;;;;5035837;28;19925;-76
2022/09/27 19:30:44;;;;;;;;;;;21.30;60.60;;;;;;5035707;28;20388;-74
2022/09/27 19:33:11;;;;;;;;;;;21.30;60.70;;;;;;5035765;28;19932;-74
2022/09/27 19:35:37;;;;;;;;;;;21.30;60.70;;;;;;5035651;28;19931;-74
2022/09/27 19:38:04;;;;;;;;;;;21.30;60.80;;;;;;5036175;28;19925;-74
2022/09/27 19:40:31;;;;;;;;;;;21.30;60.80;;;;;;5035587;28;19925;-75
2022/09/27 19:42:58;;;;;;;;;;;21.30;60.90;;;;;;5035904;28;19929;-75
2022/09/27 19:45:24;;;;;;;;;;;21.30;61.00;;;;;;5035841;28;20023;-75
2022/09/27 19:47:54;;;;;;;;;;;21.30;61.00;;;;;;5035792;28;20015;-75
2022/09/27 19:50:21;;;;;;;;;;;21.30;61.10;;;;;;5035551;28;20369;-74
2022/09/27 19:52:48;;;;;;;;;;;21.30;61.20;;;;;;5035536;28;19925;-75
2022/09/27 19:55:15;;;;;;;;;;;21.30;61.20;;;;;;5036107;28;20369;-76
2022/09/27 19:57:42;;;;;;;;;;;21.30;61.30;;;;;;5035789;28;19926;-76
2022/09/27 20:00:09;;;;;;;;;;;21.30;61.40;;;;;;5035341;28;19975;-76
2022/09/27 20:02:35;;;;;;;;;;;21.30;61.40;;;;;;5035515;28;19960;-75
2022/09/27 20:05:04;;;;;;;;;;;21.30;61.50;;;;;;5035539;28;20028;-75
2022/09/27 20:07:33;;;;;;;;;;;21.30;61.60;;;;;;5035538;28;19931;-75
2022/09/27 20:10:00;;;;;;;;;;;21.30;61.60;;;;;;5035370;28;19948;-74
2022/09/27 20:12:27;;;;;;;;;;;21.30;62.40;;;;;;5035328;28;19929;-74
2022/09/27 20:14:53;;;;;;;;;;;21.30;62.50;;;;;;5035372;28;19925;-74
2022/09/27 20:17:20;;;;;;;;;;;21.30;61.80;;;;;;5035278;28;19925;-74
2022/09/27 20:19:47;;;;;;;;;;;21.30;61.90;;;;;;5035230;28;20011;-74
2022/09/27 20:22:15;;;;;;;;;;;21.30;62.00;;;;;;5035096;28;20350;-73
2022/09/27 20:24:41;;;;;;;;;;;21.30;62.10;;;;;;5035184;28;19931;-75
2022/09/27 20:27:08;;;;;;;;;;;21.30;62.10;;;;;;5035146;28;19925;-76
2022/09/27 20:29:35;;;;;;;;;;;21.30;62.20;;;;;;5035247;28;20023;-75
2022/09/27 20:32:01;;;;;;;;;;;21.30;62.30;;;;;;5034794;28;19971;-75
2022/09/27 20:34:28;;;;;;;;;;;21.30;62.40;;;;;;5034958;28;19925;-75
2022/09/27 20:36:55;;;;;;;;;;;21.30;62.50;;;;;;5034817;28;19932;-74
2022/09/27 20:39:23;;;;;;;;;;;21.30;62.60;;;;;;5035090;28;20015;-74
2022/09/27 20:41:49;;;;;;;;;;;21.30;62.60;;;;;;5034680;28;20369;-74
2022/09/27 20:44:17;;;;;;;;;;;21.30;62.70;;;;;;5034985;28;19925;-74
2022/09/27 20:46:44;;;;;;;;;;;21.30;62.90;;;;;;5034921;28;19932;-75
